Map

Track Data

SID SEASON NUMBER BASIN SUBBASIN NAME ISO_TIME NATURE LAT LON WMO_WIND WMO_PRES WMO_AGENCY TRACK_TYPE DIST2LAND LANDFALL IFLAG USA_AGENCY USA_ATCF_ID USA_LAT USA_LON USA_RECORD USA_STATUS USA_WIND USA_PRES USA_SSHS USA_R34_NE USA_R34_SE USA_R34_SW USA_R34_NW USA_R50_NE USA_R50_SE USA_R50_SW USA_R50_NW USA_R64_NE USA_R64_SE USA_R64_SW USA_R64_NW USA_POCI USA_ROCI USA_RMW USA_EYE TOKYO_LAT TOKYO_LON TOKYO_GRADE TOKYO_WIND TOKYO_PRES TOKYO_R50_DIR TOKYO_R50_LONG TOKYO_R50_SHORT TOKYO_R30_DIR TOKYO_R30_LONG TOKYO_R30_SHORT TOKYO_LAND CMA_LAT CMA_LON CMA_CAT CMA_WIND CMA_PRES HKO_LAT HKO_LON HKO_CAT HKO_WIND HKO_PRES NEWDELHI_LAT NEWDELHI_LON NEWDELHI_GRADE NEWDELHI_WIND NEWDELHI_PRES NEWDELHI_CI NEWDELHI_DP NEWDELHI_POCI REUNION_LAT REUNION_LON REUNION_TYPE REUNION_WIND REUNION_PRES REUNION_TNUM REUNION_CI REUNION_RMW REUNION_R34_NE REUNION_R34_SE REUNION_R34_SW REUNION_R34_NW REUNION_R50_NE REUNION_R50_SE REUNION_R50_SW REUNION_R50_NW REUNION_R64_NE REUNION_R64_SE REUNION_R64_SW REUNION_R64_NW BOM_LAT BOM_LON BOM_TYPE BOM_WIND BOM_PRES BOM_TNUM BOM_CI BOM_RMW BOM_R34_NE BOM_R34_SE BOM_R34_SW BOM_R34_NW BOM_R50_NE BOM_R50_SE BOM_R50_SW BOM_R50_NW BOM_R64_NE BOM_R64_SE BOM_R64_SW BOM_R64_NW BOM_ROCI BOM_POCI BOM_EYE BOM_POS_METHOD BOM_PRES_METHOD NADI_LAT NADI_LON NADI_CAT NADI_WIND NADI_PRES WELLINGTON_LAT WELLINGTON_LON WELLINGTON_WIND WELLINGTON_PRES DS824_LAT DS824_LON DS824_STAGE DS824_WIND DS824_PRES TD9636_LAT TD9636_LON TD9636_STAGE TD9636_WIND TD9636_PRES TD9635_LAT TD9635_LON TD9635_WIND TD9635_PRES TD9635_ROCI NEUMANN_LAT NEUMANN_LON NEUMANN_CLASS NEUMANN_WIND NEUMANN_PRES MLC_LAT MLC_LON MLC_CLASS MLC_WIND MLC_PRES USA_GUST BOM_GUST BOM_GUST_PER REUNION_GUST REUNION_GUST_PER USA_SEAHGT USA_SEARAD_NE USA_SEARAD_SE USA_SEARAD_SW USA_SEARAD_NW STORM_SPEED STORM_DIR
1987034S16187 1987 11 SP MM NOT_NAMED 1987-02-03 00:00:00 TS -15.8000 -173.100 main 230 224 O_________O_O_ jtwc_sh SH131987 -15.8000 -173.100 25 -1 -15.8000 -173.100 1 25 -15.8000 -173.100 TC 25 7 82
1987034S16187 1987 11 SP MM NOT_NAMED 1987-02-03 03:00:00 TS -15.7530 -172.750 main 224 212 P_________P_P_ SH131987 -15.7176 -172.750 25 -1 -15.8239 -172.750 1 26 -15.7176 -172.750 TC 25 7 86
1987034S16187 1987 11 SP MM NOT_NAMED 1987-02-03 06:00:00 TS -15.7493 -172.400 main 212 212 O_________P_O_ jtwc_sh SH131987 -15.7000 -172.400 25 -1 -15.8479 -172.400 1 27 -15.7000 -172.400 TC 25 7 95
1987034S16187 1987 11 SP MM NOT_NAMED 1987-02-03 09:00:00 TS -15.8143 -172.050 main 224 224 P_________P_P_ SH131987 -15.7849 -172.050 27 -1 -15.8731 -172.050 1 28 -15.7849 -172.050 TC 27 7 103
1987034S16187 1987 11 SP MM NOT_NAMED 1987-02-03 12:00:00 TS -15.9000 -171.700 main 241 241 O_________O_O_ jtwc_sh SH131987 -15.9000 -171.700 30 -1 -15.9000 -171.700 1 30 -15.9000 -171.700 TC 30 7 102
1987034S16187 1987 11 SP MM NOT_NAMED 1987-02-03 15:00:00 TS -15.9529 -171.350 main 264 264 P_________P_P_ SH131987 -15.9649 -171.350 32 -1 -15.9289 -171.350 1 32 -15.9649 -171.350 TC 32 7 97
1987034S16187 1987 11 SP MM NOT_NAMED 1987-02-03 18:00:00 TS -15.9858 -171.000 main 278 278 O_________P_O_ jtwc_sh SH131987 -16.0000 -171.000 35 0 -15.9573 -171.000 1 35 -16.0000 -171.000 TC 35 7 94
1987034S16187 1987 11 SP MM NOT_NAMED 1987-02-03 21:00:00 TS -15.9990 -170.650 main 300 300 P_________P_P_ SH131987 -16.0074 -170.650 37 0 -15.9820 -170.650 1 37 -16.0074 -170.650 TC 37 7 91
1987034S16187 1987 11 SP MM NOT_NAMED 1987-02-04 00:00:00 TS -16.0000 -170.300 main 319 319 O_________O_O_ jtwc_sh SH131987 -16.0000 -170.300 40 0 -16.0000 -170.300 2 40 -16.0000 -170.300 TC 40 7 91
1987034S16187 1987 11 SP MM NOT_NAMED 1987-02-04 03:00:00 TS -16.0050 -169.953 main 341 341 P_________P_P_ SH131987 -15.9999 -169.950 40 0 -16.0150 -169.958 2 40 -15.9999 -169.950 TC 40 7 91
1987034S16187 1987 11 SP MM NOT_NAMED 1987-02-04 06:00:00 TS -16.0074 -169.605 main 372 372 O_________P_O_ jtwc_sh SH131987 -16.0000 -169.600 40 0 -16.0221 -169.615 2 40 -16.0000 -169.600 TC 40 7 91
1987034S16187 1987 11 SP MM NOT_NAMED 1987-02-04 09:00:00 TS -16.0110 -169.255 main 397 397 P_________P_P_ SH131987 -16.0074 -169.250 40 0 -16.0181 -169.264 2 40 -16.0074 -169.250 TC 40 7 89
1987034S16187 1987 11 SP MM NOT_NAMED 1987-02-04 12:00:00 TS -16.0000 -168.900 main 431 431 O_________O_O_ jtwc_sh SH131987 -16.0000 -168.900 40 0 -16.0000 -168.900 2 40 -16.0000 -168.900 TC 40 7 85
1987034S16187 1987 11 SP MM NOT_NAMED 1987-02-04 15:00:00 TS -15.9512 -168.567 main 458 458 P_________P_P_ SH131987 -15.9574 -168.565 40 0 -15.9390 -168.571 2 38 -15.9574 -168.565 TC 40 7 81
1987034S16187 1987 11 SP MM NOT_NAMED 1987-02-04 18:00:00 TS -15.8894 -168.206 main 490 490 O_________P_O_ jtwc_sh SH131987 -15.9000 -168.200 40 0 -15.8683 -168.219 2 37 -15.9000 -168.200 TC 40 7 81
1987034S16187 1987 11 SP MM NOT_NAMED 1987-02-04 21:00:00 TS -15.8327 -167.799 main 523 523 P_________P_P_ SH131987 -15.8423 -167.795 37 0 -15.8136 -167.808 2 36 -15.8423 -167.795 TC 37 9 84
1987034S16187 1987 11 SP MM NOT_NAMED 1987-02-05 00:00:00 TS -15.8000 -167.300 main 572 572 O_________O_O_ jtwc_sh SH131987 -15.8000 -167.300 35 0 -15.8000 -167.300 2 35 -15.8000 -167.300 TC 35 11 88
1987034S16187 1987 11 SP MM NOT_NAMED 1987-02-05 03:00:00 TS -15.7899 -166.696 main 632 632 P_________P_P_ SH131987 -15.7622 -166.710 32 -1 -15.8452 -166.669 2 32 -15.7622 -166.710 TC 32 13 92
1987034S16187 1987 11 SP MM NOT_NAMED 1987-02-05 06:00:00 TS -15.8462 -165.979 main 703 703 O_________P_O_ jtwc_sh SH131987 -15.8000 -166.000 30 -1 -15.9386 -165.937 2 30 -15.8000 -166.000 TC 30 15 98
1987034S16187 1987 11 SP MM NOT_NAMED 1987-02-05 09:00:00 TS -15.9964 -165.166 main 791 791 P_________P_P_ SH131987 -15.9633 -165.181 27 -1 -16.0626 -165.136 2 27 -15.9633 -165.181 TC 27 17 102
1987034S16187 1987 11 SP MM NOT_NAMED 1987-02-05 12:00:00 TS -16.2000 -164.300 main 890 O_________O_O_ jtwc_sh SH131987 -16.2000 -164.300 25 -1 -16.2000 -164.300 1 25 -16.2000 -164.300 TC 25 17 104

Digital Typhoon Data and Search

About IBTrACS Database

This database is a web-friendly format of International Best Track Archive for Climate Stewardship (IBTrACS), a global best track data archive curated by NOAA dating back to 1842.

Updated: 2021-11-26